• Join FlightAware (Why Join?)
  • Login
  • US Flag 
03:23AM EDT


 

Airport Tracker/Info


-or-


 

Live Flight TrackerFlight Track Log ✈ SWA771 ✈ 11-May-2013 ✈ KALB - KBWI

Flight Track Log - Related Links

Times and Time Zones

All times are in EDT time to prevent confusion due to time zone crossing. See the SWA771 flight status page for this flight to view local times or setup timezone preferences in your user account.

Time Position Orientation Groundspeed Altitude Reporting Facility
EDT Latitude Longitude Course Direction KTS MPH feet Rate Location/Type
10:35AM 42.7297 -73.8081 186° South 138 159 1,500  Level Boston Center
10:36AM 42.6944 -73.8131 186° South 193 222 2,800 3,060 Climbing Boston Center
10:37AM 42.6703 -73.9083 251° West 226 260 8,000 3,660 Climbing Boston Center
10:38AM 42.6711 -74.0044 271° West 240 276 11,600 3,480 Climbing Boston Center
10:39AM 42.6447 -74.0886 247° West 252 290 15,000 3,060 Climbing Boston Center
10:40AM 42.5636 -74.0778 174° South 255 293 17,800 1,800 Climbing Boston Center
10:42AM 42.4686 -74.0164 155° Southeast 306 352 19,000 1,980 Climbing Boston Center
10:43AM 42.3592 -73.9544 157° South 335 386 22,200 2,760 Climbing Boston Center
10:44AM 42.2617 -73.9072 160° South 360 414 24,600 1,860 Climbing Boston Center
10:45AM 42.1556 -73.8964 176° South 372 428 26,000 1,500 Climbing Boston Center
10:46AM 42.0511 -73.9108 186° South 382 440 27,600 660 Climbing Boston Center
10:47AM 41.8719 -73.9772 195° South 378 435 28,000 120 Climbing New York Center
10:48AM 41.7728 -74.0197 198° South 378 435 28,000  Level New York Center
10:49AM 41.6739 -74.0564 195° South 378 435 28,000  Level New York Center
10:50AM 41.5792 -74.0961 197° South 373 429 28,000  Level New York Center
10:51AM 41.4781 -74.1325 195° South 373 429 28,000  Level New York Center
10:52AM 41.3728 -74.1744 197° South 378 435 28,000  Level New York Center
10:53AM 41.2717 -74.2161 197° South 387 445 28,000  Level New York Center
10:54AM 41.1772 -74.2444 193° South 387 445 28,000  Level New York Center
10:55AM 41.0781 -74.2833 195° South 387 445 28,000  Level New York Center
10:56AM 41.0794 -74.2791 195° South  Level FlightAware Approximate
10:56AM 40.9811 -74.3250 198° South 382 440 28,000  Level New York Center
10:57AM 40.8778 -74.3636 196° South 382 440 28,000  Level New York Center
10:58AM 40.7825 -74.4106 200° South 382 440 28,000 -300 Level New York Center
10:59AM 40.7189 -74.5139 231° Southwest 363 418 27,500 -780 Descending New York Center
11:00AM 40.6572 -74.6200 233° Southwest 357 411 26,500 -1,020 Descending New York Center
11:01AM 40.5933 -74.7203 230° Southwest 369 425 25,500 -1,020 Descending New York Center
11:02AM 40.5275 -74.8203 229° Southwest 369 425 24,500 -1,020 Descending New York Center
11:03AM 40.4594 -74.9197 228° Southwest 369 425 23,500 -1,020 Descending New York Center
11:04AM 40.3981 -75.0061 227° Southwest 369 425 22,500 -1,200 Descending New York Center
11:05AM 40.3192 -75.1156 227° Southwest 369 425 21,200 -1,140 Descending New York Center
11:06AM 40.2553 -75.2067 227° Southwest 358 412 20,300 -960 Descending New York Center
11:07AM 40.1914 -75.2950 227° Southwest 348 400 19,300 -660 Descending New York Center
11:08AM 40.1319 -75.3753 226° Southwest 343 395 19,000 -240 Descending New York Center
11:09AM 40.0658 -75.4686 227° Southwest 331 381 18,900 -660 Descending New York Center
11:10AM 40.0108 -75.5436 226° Southwest 331 381 17,800 -960 Descending New York Center
11:11AM 39.9422 -75.6392 227° Southwest 331 381 17,000 -720 Descending New York Center
11:12AM 39.8928 -75.7222 232° Southwest 331 381 16,400 -900 Descending New York Center
11:13AM 39.8383 -75.8264 236° Southwest 326 375 15,300 -840 Descending New York Center
11:15AM 39.7667 -75.9667 236° Southwest 310 357 14,400 -1,140 Descending Potomac TRACON
11:16AM 39.7167 -76.0500 232° Southwest 300 345 12,500 -1,200 Descending Potomac TRACON
11:17AM 39.6667 -76.1333 232° Southwest 269 310 12,000 -600 Descending Potomac TRACON
11:18AM 39.6167 -76.2000 226° Southwest 259 298 11,300 -900 Descending Potomac TRACON
11:20AM 39.5167 -76.3167 222° Southwest 246 283 9,300 -1,140 Descending Potomac TRACON
11:21AM 39.4667 -76.3667 218° Southwest 245 282 8,100 -1,620 Descending Potomac TRACON
11:22AM 39.4167 -76.4167 218° Southwest 255 293 6,300 -1,440 Descending Potomac TRACON
11:23AM 39.3333 -76.4333 189° South 256 295 5,300 -1,200 Descending Potomac TRACON
11:24AM 39.2667 -76.4333 180° South 255 293 4,000 -720 Descending Potomac TRACON
11:25AM 39.2000 -76.4333 180° South 252 290 4,000 -360 Level Potomac TRACON
11:26AM 39.1500 -76.4667 207° Southwest 248 285 3,400 -600 Descending Potomac TRACON
11:27AM 39.1000 -76.5333 226° Southwest 213 245 2,900 -780 Descending Potomac TRACON
11:28AM 39.0833 -76.5833 247° West 179 206 1,900 -900 Descending Potomac TRACON
11:29AM 39.1167 -76.6167 322° Northwest 137 158 1,200 -660 Descending Potomac TRACON
11:30AM 39.1500 -76.6500 322° Northwest 136 157 700 -600 Descending Potomac TRACON
11:32AM 39.1667 -76.6667 270° West  Level FlightAware Approximate
11:39AM 39.1754 -76.6683 270° West  Level Estimated